sensor_id;sensor_type;location;lat;lon;timestamp;P1;durP1;ratioP1;P2;durP2;ratioP2
65691;SDS011;52411;52.716;6.696;2022-12-11T00:01:58;58.90;;;15.40;;
65691;SDS011;52411;52.716;6.696;2022-12-11T00:04:24;50.63;;;14.02;;
65691;SDS011;52411;52.716;6.696;2022-12-11T00:06:50;55.80;;;14.68;;
65691;SDS011;52411;52.716;6.696;2022-12-11T00:09:17;62.88;;;16.30;;
65691;SDS011;52411;52.716;6.696;2022-12-11T00:11:44;63.58;;;15.73;;
65691;SDS011;52411;52.716;6.696;2022-12-11T00:14:10;56.38;;;15.43;;
65691;SDS011;52411;52.716;6.696;2022-12-11T00:16:37;56.25;;;15.95;;
65691;SDS011;52411;52.716;6.696;2022-12-11T00:19:02;61.92;;;15.88;;
65691;SDS011;52411;52.716;6.696;2022-12-11T00:21:28;68.22;;;17.10;;
65691;SDS011;52411;52.716;6.696;2022-12-11T00:23:54;61.65;;;16.25;;
65691;SDS011;52411;52.716;6.696;2022-12-11T00:26:20;58.75;;;16.05;;
65691;SDS011;52411;52.716;6.696;2022-12-11T00:28:46;50.53;;;14.88;;
65691;SDS011;52411;52.716;6.696;2022-12-11T00:31:13;58.00;;;15.02;;
65691;SDS011;52411;52.716;6.696;2022-12-11T00:33:41;67.00;;;16.90;;
65691;SDS011;52411;52.716;6.696;2022-12-11T00:36:11;61.83;;;16.23;;
65691;SDS011;52411;52.716;6.696;2022-12-11T00:38:38;56.35;;;15.70;;
65691;SDS011;52411;52.716;6.696;2022-12-11T00:41:04;54.63;;;13.98;;
65691;SDS011;52411;52.716;6.696;2022-12-11T00:43:30;57.63;;;15.60;;
65691;SDS011;52411;52.716;6.696;2022-12-11T00:45:55;49.25;;;15.13;;
65691;SDS011;52411;52.716;6.696;2022-12-11T00:48:21;56.42;;;15.48;;
65691;SDS011;52411;52.716;6.696;2022-12-11T00:50:47;56.17;;;14.50;;
65691;SDS011;52411;52.716;6.696;2022-12-11T00:53:12;59.30;;;14.50;;
65691;SDS011;52411;52.716;6.696;2022-12-11T00:55:38;46.83;;;14.50;;
65691;SDS011;52411;52.716;6.696;2022-12-11T00:58:06;54.75;;;15.55;;
65691;SDS011;52411;52.716;6.696;2022-12-11T01:00:32;57.25;;;15.15;;
65691;SDS011;52411;52.716;6.696;2022-12-11T01:02:58;52.67;;;14.85;;
65691;SDS011;52411;52.716;6.696;2022-12-11T01:05:23;51.95;;;14.70;;
65691;SDS011;52411;52.716;6.696;2022-12-11T01:07:49;58.47;;;15.00;;
65691;SDS011;52411;52.716;6.696;2022-12-11T01:10:15;62.30;;;15.65;;
65691;SDS011;52411;52.716;6.696;2022-12-11T01:15:24;57.30;;;15.38;;
65691;SDS011;52411;52.716;6.696;2022-12-11T01:17:52;60.85;;;17.15;;
65691;SDS011;52411;52.716;6.696;2022-12-11T01:20:18;50.60;;;15.88;;
65691;SDS011;52411;52.716;6.696;2022-12-11T01:22:45;59.25;;;15.63;;
65691;SDS011;52411;52.716;6.696;2022-12-11T01:25:12;58.25;;;15.48;;
65691;SDS011;52411;52.716;6.696;2022-12-11T01:27:38;53.47;;;15.73;;
65691;SDS011;52411;52.716;6.696;2022-12-11T01:30:04;58.35;;;16.10;;
65691;SDS011;52411;52.716;6.696;2022-12-11T01:32:32;53.97;;;14.82;;
65691;SDS011;52411;52.716;6.696;2022-12-11T01:34:58;53.40;;;15.57;;
65691;SDS011;52411;52.716;6.696;2022-12-11T01:37:26;56.05;;;15.40;;
65691;SDS011;52411;52.716;6.696;2022-12-11T01:39:52;55.60;;;15.57;;
65691;SDS011;52411;52.716;6.696;2022-12-11T01:42:18;56.17;;;16.00;;
65691;SDS011;52411;52.716;6.696;2022-12-11T01:47:09;51.50;;;15.32;;
65691;SDS011;52411;52.716;6.696;2022-12-11T01:49:36;46.25;;;14.98;;
65691;SDS011;52411;52.716;6.696;2022-12-11T01:52:05;52.83;;;15.32;;
65691;SDS011;52411;52.716;6.696;2022-12-11T01:54:35;55.72;;;15.23;;
65691;SDS011;52411;52.716;6.696;2022-12-11T01:57:02;47.88;;;14.05;;
65691;SDS011;52411;52.716;6.696;2022-12-11T01:59:30;57.17;;;15.75;;
65691;SDS011;52411;52.716;6.696;2022-12-11T02:02:03;46.47;;;14.85;;
65691;SDS011;52411;52.716;6.696;2022-12-11T02:04:33;49.08;;;14.10;;
65691;SDS011;52411;52.716;6.696;2022-12-11T02:07:02;42.63;;;13.55;;
65691;SDS011;52411;52.716;6.696;2022-12-11T02:09:28;61.63;;;15.88;;
65691;SDS011;52411;52.716;6.696;2022-12-11T02:12:01;59.97;;;15.63;;
65691;SDS011;52411;52.716;6.696;2022-12-11T02:14:52;52.83;;;15.27;;
65691;SDS011;52411;52.716;6.696;2022-12-11T02:17:28;58.22;;;15.23;;
65691;SDS011;52411;52.716;6.696;2022-12-11T02:20:17;62.70;;;15.85;;
65691;SDS011;52411;52.716;6.696;2022-12-11T02:25:44;59.85;;;16.08;;
65691;SDS011;52411;52.716;6.696;2022-12-11T02:31:13;53.78;;;15.60;;
65691;SDS011;52411;52.716;6.696;2022-12-11T02:33:47;67.78;;;16.88;;
65691;SDS011;52411;52.716;6.696;2022-12-11T02:36:19;58.47;;;16.23;;
65691;SDS011;52411;52.716;6.696;2022-12-11T02:38:49;72.00;;;16.63;;
65691;SDS011;52411;52.716;6.696;2022-12-11T02:41:19;72.93;;;17.67;;
65691;SDS011;52411;52.716;6.696;2022-12-11T02:43:46;67.30;;;16.70;;
65691;SDS011;52411;52.716;6.696;2022-12-11T02:46:14;68.63;;;17.15;;
65691;SDS011;52411;52.716;6.696;2022-12-11T02:48:43;67.85;;;16.42;;
65691;SDS011;52411;52.716;6.696;2022-12-11T02:51:11;67.80;;;17.15;;
65691;SDS011;52411;52.716;6.696;2022-12-11T02:53:39;63.50;;;16.65;;
65691;SDS011;52411;52.716;6.696;2022-12-11T02:56:09;60.70;;;15.27;;
65691;SDS011;52411;52.716;6.696;2022-12-11T02:58:45;68.15;;;16.10;;
65691;SDS011;52411;52.716;6.696;2022-12-11T03:01:13;55.47;;;15.90;;
65691;SDS011;52411;52.716;6.696;2022-12-11T03:03:39;60.45;;;15.85;;
65691;SDS011;52411;52.716;6.696;2022-12-11T03:06:05;63.65;;;16.27;;
65691;SDS011;52411;52.716;6.696;2022-12-11T03:08:31;56.78;;;15.63;;
65691;SDS011;52411;52.716;6.696;2022-12-11T03:10:56;52.17;;;15.40;;
65691;SDS011;52411;52.716;6.696;2022-12-11T03:13:23;61.63;;;16.30;;
65691;SDS011;52411;52.716;6.696;2022-12-11T03:16:10;57.80;;;15.85;;
65691;SDS011;52411;52.716;6.696;2022-12-11T03:18:57;56.67;;;15.85;;
65691;SDS011;52411;52.716;6.696;2022-12-11T03:21:33;64.55;;;16.83;;
65691;SDS011;52411;52.716;6.696;2022-12-11T03:24:29;69.18;;;16.05;;
65691;SDS011;52411;52.716;6.696;2022-12-11T03:26:56;59.85;;;16.30;;
65691;SDS011;52411;52.716;6.696;2022-12-11T03:29:31;60.95;;;16.05;;
65691;SDS011;52411;52.716;6.696;2022-12-11T03:32:04;57.60;;;15.55;;
65691;SDS011;52411;52.716;6.696;2022-12-11T03:34:37;62.95;;;16.08;;
65691;SDS011;52411;52.716;6.696;2022-12-11T03:37:08;70.07;;;16.95;;
65691;SDS011;52411;52.716;6.696;2022-12-11T03:39:36;64.03;;;16.13;;
65691;SDS011;52411;52.716;6.696;2022-12-11T03:42:09;54.17;;;15.63;;
65691;SDS011;52411;52.716;6.696;2022-12-11T03:44:37;59.60;;;17.23;;
65691;SDS011;52411;52.716;6.696;2022-12-11T03:47:06;66.03;;;16.88;;
65691;SDS011;52411;52.716;6.696;2022-12-11T03:49:34;69.30;;;17.30;;
65691;SDS011;52411;52.716;6.696;2022-12-11T03:52:03;61.20;;;15.98;;
65691;SDS011;52411;52.716;6.696;2022-12-11T03:54:31;57.45;;;16.08;;
65691;SDS011;52411;52.716;6.696;2022-12-11T03:56:58;64.32;;;17.17;;
65691;SDS011;52411;52.716;6.696;2022-12-11T03:59:26;92.07;;;17.63;;
65691;SDS011;52411;52.716;6.696;2022-12-11T04:01:52;66.90;;;16.63;;
65691;SDS011;52411;52.716;6.696;2022-12-11T04:04:18;66.60;;;18.38;;
65691;SDS011;52411;52.716;6.696;2022-12-11T04:06:44;75.25;;;16.38;;
65691;SDS011;52411;52.716;6.696;2022-12-11T04:09:10;84.20;;;18.63;;
65691;SDS011;52411;52.716;6.696;2022-12-11T04:11:35;70.72;;;17.88;;
65691;SDS011;52411;52.716;6.696;2022-12-11T04:14:02;63.92;;;16.75;;
65691;SDS011;52411;52.716;6.696;2022-12-11T04:16:48;65.45;;;17.15;;
65691;SDS011;52411;52.716;6.696;2022-12-11T04:19:13;64.40;;;17.65;;
65691;SDS011;52411;52.716;6.696;2022-12-11T04:21:58;55.33;;;16.75;;
65691;SDS011;52411;52.716;6.696;2022-12-11T04:25:02;65.40;;;15.70;;
65691;SDS011;52411;52.716;6.696;2022-12-11T04:27:29;66.13;;;16.67;;
65691;SDS011;52411;52.716;6.696;2022-12-11T04:30:20;61.00;;;15.70;;
65691;SDS011;52411;52.716;6.696;2022-12-11T04:32:48;64.00;;;16.45;;
65691;SDS011;52411;52.716;6.696;2022-12-11T04:35:14;54.05;;;15.38;;
65691;SDS011;52411;52.716;6.696;2022-12-11T04:37:40;66.72;;;17.48;;
65691;SDS011;52411;52.716;6.696;2022-12-11T04:40:07;55.67;;;15.80;;
65691;SDS011;52411;52.716;6.696;2022-12-11T04:42:35;59.58;;;16.33;;
65691;SDS011;52411;52.716;6.696;2022-12-11T04:45:01;55.38;;;15.27;;
65691;SDS011;52411;52.716;6.696;2022-12-11T04:47:27;60.60;;;16.83;;
65691;SDS011;52411;52.716;6.696;2022-12-11T04:49:52;56.92;;;16.58;;
65691;SDS011;52411;52.716;6.696;2022-12-11T04:52:18;70.78;;;17.13;;
65691;SDS011;52411;52.716;6.696;2022-12-11T04:54:44;60.85;;;16.73;;
65691;SDS011;52411;52.716;6.696;2022-12-11T04:57:09;63.17;;;16.67;;
65691;SDS011;52411;52.716;6.696;2022-12-11T04:59:35;58.53;;;16.77;;
65691;SDS011;52411;52.716;6.696;2022-12-11T05:02:01;62.38;;;17.52;;
65691;SDS011;52411;52.716;6.696;2022-12-11T05:04:30;62.70;;;17.73;;
65691;SDS011;52411;52.716;6.696;2022-12-11T05:06:57;63.75;;;16.65;;
65691;SDS011;52411;52.716;6.696;2022-12-11T05:09:23;66.93;;;16.27;;
65691;SDS011;52411;52.716;6.696;2022-12-11T05:11:50;55.80;;;15.88;;
65691;SDS011;52411;52.716;6.696;2022-12-11T05:14:16;57.65;;;15.85;;
65691;SDS011;52411;52.716;6.696;2022-12-11T05:16:41;58.65;;;16.00;;
65691;SDS011;52411;52.716;6.696;2022-12-11T05:19:07;56.50;;;16.98;;
65691;SDS011;52411;52.716;6.696;2022-12-11T05:21:33;52.97;;;16.25;;
65691;SDS011;52411;52.716;6.696;2022-12-11T05:23:59;51.45;;;16.58;;
65691;SDS011;52411;52.716;6.696;2022-12-11T05:26:24;52.60;;;15.68;;
65691;SDS011;52411;52.716;6.696;2022-12-11T05:28:50;61.80;;;16.92;;
65691;SDS011;52411;52.716;6.696;2022-12-11T05:31:19;49.63;;;15.82;;
65691;SDS011;52411;52.716;6.696;2022-12-11T05:33:49;52.70;;;15.75;;
65691;SDS011;52411;52.716;6.696;2022-12-11T05:36:26;58.00;;;14.68;;
65691;SDS011;52411;52.716;6.696;2022-12-11T05:38:54;51.25;;;14.98;;
65691;SDS011;52411;52.716;6.696;2022-12-11T05:41:22;45.38;;;14.95;;
65691;SDS011;52411;52.716;6.696;2022-12-11T05:43:49;56.33;;;15.70;;
65691;SDS011;52411;52.716;6.696;2022-12-11T05:46:22;51.85;;;14.88;;
65691;SDS011;52411;52.716;6.696;2022-12-11T05:48:50;49.40;;;14.32;;
65691;SDS011;52411;52.716;6.696;2022-12-11T05:51:20;48.05;;;14.15;;
65691;SDS011;52411;52.716;6.696;2022-12-11T05:53:46;48.28;;;14.00;;
65691;SDS011;52411;52.716;6.696;2022-12-11T05:56:16;52.15;;;15.00;;
65691;SDS011;52411;52.716;6.696;2022-12-11T05:58:42;51.50;;;14.80;;
65691;SDS011;52411;52.716;6.696;2022-12-11T06:01:10;51.30;;;14.25;;
65691;SDS011;52411;52.716;6.696;2022-12-11T06:03:37;46.40;;;14.77;;
65691;SDS011;52411;52.716;6.696;2022-12-11T06:06:03;49.25;;;14.10;;
65691;SDS011;52411;52.716;6.696;2022-12-11T06:08:30;48.80;;;14.18;;
65691;SDS011;52411;52.716;6.696;2022-12-11T06:10:56;48.22;;;13.50;;
65691;SDS011;52411;52.716;6.696;2022-12-11T06:13:22;45.35;;;14.55;;
65691;SDS011;52411;52.716;6.696;2022-12-11T06:15:48;50.13;;;14.25;;
65691;SDS011;52411;52.716;6.696;2022-12-11T06:18:14;42.58;;;12.82;;
65691;SDS011;52411;52.716;6.696;2022-12-11T06:20:39;47.53;;;14.18;;
65691;SDS011;52411;52.716;6.696;2022-12-11T06:23:05;46.33;;;13.82;;
65691;SDS011;52411;52.716;6.696;2022-12-11T06:25:30;44.80;;;13.57;;
65691;SDS011;52411;52.716;6.696;2022-12-11T06:27:56;43.25;;;13.38;;
65691;SDS011;52411;52.716;6.696;2022-12-11T06:30:22;45.67;;;13.73;;
65691;SDS011;52411;52.716;6.696;2022-12-11T06:32:48;50.63;;;13.95;;
65691;SDS011;52411;52.716;6.696;2022-12-11T06:35:13;49.10;;;15.10;;
65691;SDS011;52411;52.716;6.696;2022-12-11T06:37:39;46.35;;;14.52;;
65691;SDS011;52411;52.716;6.696;2022-12-11T06:40:05;49.47;;;14.40;;
65691;SDS011;52411;52.716;6.696;2022-12-11T06:42:32;36.58;;;13.05;;
65691;SDS011;52411;52.716;6.696;2022-12-11T06:44:58;49.42;;;14.18;;
65691;SDS011;52411;52.716;6.696;2022-12-11T06:47:27;46.10;;;14.65;;
65691;SDS011;52411;52.716;6.696;2022-12-11T06:49:54;48.50;;;14.10;;
65691;SDS011;52411;52.716;6.696;2022-12-11T06:52:21;50.72;;;15.30;;
65691;SDS011;52411;52.716;6.696;2022-12-11T06:54:47;47.30;;;14.90;;
65691;SDS011;52411;52.716;6.696;2022-12-11T06:57:14;53.38;;;14.60;;
65691;SDS011;52411;52.716;6.696;2022-12-11T06:59:40;48.13;;;14.82;;
65691;SDS011;52411;52.716;6.696;2022-12-11T07:02:05;54.05;;;14.55;;
65691;SDS011;52411;52.716;6.696;2022-12-11T07:04:31;52.45;;;14.30;;
65691;SDS011;52411;52.716;6.696;2022-12-11T07:06:57;47.00;;;13.30;;
65691;SDS011;52411;52.716;6.696;2022-12-11T07:09:23;46.75;;;13.82;;
65691;SDS011;52411;52.716;6.696;2022-12-11T07:11:51;51.95;;;14.60;;
65691;SDS011;52411;52.716;6.696;2022-12-11T07:14:18;45.00;;;14.52;;
65691;SDS011;52411;52.716;6.696;2022-12-11T07:16:44;49.08;;;14.48;;
65691;SDS011;52411;52.716;6.696;2022-12-11T07:19:10;57.70;;;14.60;;
65691;SDS011;52411;52.716;6.696;2022-12-11T07:21:36;53.00;;;15.85;;
65691;SDS011;52411;52.716;6.696;2022-12-11T07:24:02;48.47;;;14.15;;
65691;SDS011;52411;52.716;6.696;2022-12-11T07:26:30;47.17;;;13.63;;
65691;SDS011;52411;52.716;6.696;2022-12-11T07:28:56;52.17;;;14.20;;
65691;SDS011;52411;52.716;6.696;2022-12-11T07:31:23;54.33;;;15.18;;
65691;SDS011;52411;52.716;6.696;2022-12-11T07:33:57;52.33;;;14.95;;
65691;SDS011;52411;52.716;6.696;2022-12-11T07:36:25;48.00;;;14.82;;
65691;SDS011;52411;52.716;6.696;2022-12-11T07:38:51;50.55;;;14.23;;
65691;SDS011;52411;52.716;6.696;2022-12-11T07:41:17;47.10;;;14.55;;
65691;SDS011;52411;52.716;6.696;2022-12-11T07:43:43;45.95;;;14.80;;
65691;SDS011;52411;52.716;6.696;2022-12-11T07:46:14;47.00;;;14.85;;
65691;SDS011;52411;52.716;6.696;2022-12-11T07:48:42;51.60;;;14.10;;
65691;SDS011;52411;52.716;6.696;2022-12-11T07:51:13;49.08;;;15.40;;
65691;SDS011;52411;52.716;6.696;2022-12-11T07:53:39;48.00;;;14.38;;
65691;SDS011;52411;52.716;6.696;2022-12-11T07:56:05;50.97;;;14.45;;
65691;SDS011;52411;52.716;6.696;2022-12-11T07:58:31;48.55;;;14.27;;
65691;SDS011;52411;52.716;6.696;2022-12-11T08:00:57;51.50;;;15.98;;
65691;SDS011;52411;52.716;6.696;2022-12-11T08:03:23;43.40;;;14.57;;
65691;SDS011;52411;52.716;6.696;2022-12-11T08:05:49;49.53;;;14.70;;
65691;SDS011;52411;52.716;6.696;2022-12-11T08:08:16;47.78;;;14.70;;
65691;SDS011;52411;52.716;6.696;2022-12-11T08:10:42;49.65;;;14.48;;
65691;SDS011;52411;52.716;6.696;2022-12-11T08:13:08;49.13;;;14.35;;
65691;SDS011;52411;52.716;6.696;2022-12-11T08:15:34;48.75;;;14.85;;
65691;SDS011;52411;52.716;6.696;2022-12-11T08:17:59;47.63;;;14.60;;
65691;SDS011;52411;52.716;6.696;2022-12-11T08:20:25;50.65;;;14.57;;
65691;SDS011;52411;52.716;6.696;2022-12-11T08:22:51;44.85;;;13.88;;
65691;SDS011;52411;52.716;6.696;2022-12-11T08:25:16;42.35;;;14.10;;
65691;SDS011;52411;52.716;6.696;2022-12-11T08:27:42;49.83;;;14.80;;
65691;SDS011;52411;52.716;6.696;2022-12-11T08:30:08;46.60;;;15.07;;
65691;SDS011;52411;52.716;6.696;2022-12-11T08:32:34;52.05;;;16.02;;
65691;SDS011;52411;52.716;6.696;2022-12-11T08:34:59;53.35;;;15.13;;
65691;SDS011;52411;52.716;6.696;2022-12-11T08:37:25;54.08;;;16.08;;
65691;SDS011;52411;52.716;6.696;2022-12-11T08:39:51;46.88;;;14.30;;
65691;SDS011;52411;52.716;6.696;2022-12-11T08:42:16;45.70;;;14.18;;
65691;SDS011;52411;52.716;6.696;2022-12-11T08:44:42;49.40;;;15.88;;
65691;SDS011;52411;52.716;6.696;2022-12-11T08:47:08;49.75;;;14.80;;
65691;SDS011;52411;52.716;6.696;2022-12-11T08:49:34;51.63;;;15.45;;
65691;SDS011;52411;52.716;6.696;2022-12-11T08:52:02;49.25;;;15.63;;
65691;SDS011;52411;52.716;6.696;2022-12-11T08:54:28;43.08;;;14.95;;
65691;SDS011;52411;52.716;6.696;2022-12-11T08:56:54;46.90;;;14.65;;
65691;SDS011;52411;52.716;6.696;2022-12-11T08:59:20;42.25;;;15.00;;
65691;SDS011;52411;52.716;6.696;2022-12-11T09:01:45;47.13;;;14.88;;
65691;SDS011;52411;52.716;6.696;2022-12-11T09:04:11;47.13;;;15.80;;
65691;SDS011;52411;52.716;6.696;2022-12-11T09:06:36;41.00;;;13.65;;
65691;SDS011;52411;52.716;6.696;2022-12-11T09:09:02;45.97;;;14.30;;
65691;SDS011;52411;52.716;6.696;2022-12-11T09:11:29;45.63;;;14.45;;
65691;SDS011;52411;52.716;6.696;2022-12-11T09:13:57;46.47;;;15.50;;
65691;SDS011;52411;52.716;6.696;2022-12-11T09:16:24;47.08;;;14.68;;
65691;SDS011;52411;52.716;6.696;2022-12-11T09:18:51;47.38;;;15.18;;
65691;SDS011;52411;52.716;6.696;2022-12-11T09:21:19;48.78;;;14.63;;
65691;SDS011;52411;52.716;6.696;2022-12-11T09:23:47;42.92;;;14.40;;
65691;SDS011;52411;52.716;6.696;2022-12-11T09:26:14;43.17;;;14.77;;
65691;SDS011;52411;52.716;6.696;2022-12-11T09:28:41;46.40;;;15.18;;
65691;SDS011;52411;52.716;6.696;2022-12-11T09:31:08;39.88;;;13.55;;
65691;SDS011;52411;52.716;6.696;2022-12-11T09:33:35;44.50;;;13.65;;
65691;SDS011;52411;52.716;6.696;2022-12-11T09:36:01;39.47;;;14.30;;
65691;SDS011;52411;52.716;6.696;2022-12-11T09:38:28;45.20;;;13.30;;
65691;SDS011;52411;52.716;6.696;2022-12-11T09:40:54;46.83;;;13.80;;
65691;SDS011;52411;52.716;6.696;2022-12-11T09:43:30;41.78;;;12.75;;
65691;SDS011;52411;52.716;6.696;2022-12-11T09:45:58;47.03;;;14.95;;
65691;SDS011;52411;52.716;6.696;2022-12-11T09:48:26;40.33;;;13.43;;
65691;SDS011;52411;52.716;6.696;2022-12-11T09:50:52;45.47;;;13.95;;
65691;SDS011;52411;52.716;6.696;2022-12-11T09:53:25;43.92;;;14.45;;
65691;SDS011;52411;52.716;6.696;2022-12-11T10:01:21;36.05;;;13.52;;
65691;SDS011;52411;52.716;6.696;2022-12-11T10:06:27;46.22;;;14.02;;
65691;SDS011;52411;52.716;6.696;2022-12-11T10:17:40;37.72;;;13.55;;
65691;SDS011;52411;52.716;6.696;2022-12-11T10:20:28;44.38;;;14.55;;
65691;SDS011;52411;52.716;6.696;2022-12-11T10:22:59;40.80;;;13.23;;
65691;SDS011;52411;52.716;6.696;2022-12-11T10:25:26;47.15;;;14.88;;
65691;SDS011;52411;52.716;6.696;2022-12-11T10:27:55;48.13;;;14.75;;
65691;SDS011;52411;52.716;6.696;2022-12-11T10:30:25;47.45;;;14.25;;
65691;SDS011;52411;52.716;6.696;2022-12-11T10:35:52;40.20;;;13.85;;
65691;SDS011;52411;52.716;6.696;2022-12-11T10:38:24;42.10;;;13.23;;
65691;SDS011;52411;52.716;6.696;2022-12-11T10:40:53;41.22;;;13.70;;
65691;SDS011;52411;52.716;6.696;2022-12-11T10:43:31;46.78;;;14.63;;
65691;SDS011;52411;52.716;6.696;2022-12-11T10:46:00;43.10;;;15.25;;
65691;SDS011;52411;52.716;6.696;2022-12-11T10:48:26;35.95;;;13.45;;
65691;SDS011;52411;52.716;6.696;2022-12-11T10:50:56;40.03;;;13.50;;
65691;SDS011;52411;52.716;6.696;2022-12-11T10:53:24;39.25;;;12.90;;
65691;SDS011;52411;52.716;6.696;2022-12-11T10:55:51;39.25;;;13.38;;
65691;SDS011;52411;52.716;6.696;2022-12-11T10:58:21;38.05;;;13.57;;
65691;SDS011;52411;52.716;6.696;2022-12-11T11:00:59;42.78;;;13.73;;
65691;SDS011;52411;52.716;6.696;2022-12-11T11:03:29;45.10;;;14.07;;
65691;SDS011;52411;52.716;6.696;2022-12-11T11:06:16;41.22;;;13.20;;
65691;SDS011;52411;52.716;6.696;2022-12-11T11:08:45;43.15;;;13.65;;
65691;SDS011;52411;52.716;6.696;2022-12-11T11:11:17;44.72;;;14.20;;
65691;SDS011;52411;52.716;6.696;2022-12-11T11:13:51;37.40;;;14.20;;
65691;SDS011;52411;52.716;6.696;2022-12-11T11:16:28;39.90;;;13.70;;
65691;SDS011;52411;52.716;6.696;2022-12-11T11:18:54;50.30;;;14.73;;
65691;SDS011;52411;52.716;6.696;2022-12-11T11:21:22;47.72;;;13.57;;
65691;SDS011;52411;52.716;6.696;2022-12-11T11:23:50;47.90;;;14.60;;
65691;SDS011;52411;52.716;6.696;2022-12-11T11:26:17;39.00;;;13.32;;
65691;SDS011;52411;52.716;6.696;2022-12-11T11:36:21;40.90;;;13.57;;
65691;SDS011;52411;52.716;6.696;2022-12-11T11:38:56;41.17;;;13.98;;
65691;SDS011;52411;52.716;6.696;2022-12-11T11:44:13;43.22;;;14.13;;
65691;SDS011;52411;52.716;6.696;2022-12-11T11:46:46;39.65;;;13.65;;
65691;SDS011;52411;52.716;6.696;2022-12-11T11:49:24;41.50;;;13.68;;
65691;SDS011;52411;52.716;6.696;2022-12-11T11:52:14;44.65;;;15.07;;
65691;SDS011;52411;52.716;6.696;2022-12-11T11:57:41;49.53;;;15.30;;
65691;SDS011;52411;52.716;6.696;2022-12-11T12:00:21;39.92;;;13.32;;
65691;SDS011;52411;52.716;6.696;2022-12-11T12:02:50;44.92;;;13.80;;
65691;SDS011;52411;52.716;6.696;2022-12-11T12:05:25;44.00;;;14.18;;
65691;SDS011;52411;52.716;6.696;2022-12-11T12:08:11;42.25;;;14.23;;
65691;SDS011;52411;52.716;6.696;2022-12-11T12:11:18;47.30;;;15.25;;
65691;SDS011;52411;52.716;6.696;2022-12-11T12:19:26;46.47;;;15.13;;
65691;SDS011;52411;52.716;6.696;2022-12-11T12:22:04;39.60;;;13.15;;
65691;SDS011;52411;52.716;6.696;2022-12-11T12:27:26;40.80;;;14.25;;
65691;SDS011;52411;52.716;6.696;2022-12-11T12:30:07;41.20;;;14.40;;
65691;SDS011;52411;52.716;6.696;2022-12-11T12:35:29;46.75;;;15.13;;
65691;SDS011;52411;52.716;6.696;2022-12-11T12:38:10;42.58;;;14.70;;
65691;SDS011;52411;52.716;6.696;2022-12-11T12:46:10;42.55;;;14.75;;
65691;SDS011;52411;52.716;6.696;2022-12-11T12:48:42;42.03;;;14.35;;
65691;SDS011;52411;52.716;6.696;2022-12-11T12:51:11;49.60;;;15.05;;
65691;SDS011;52411;52.716;6.696;2022-12-11T12:53:38;41.13;;;14.63;;
65691;SDS011;52411;52.716;6.696;2022-12-11T12:56:12;44.45;;;15.23;;
65691;SDS011;52411;52.716;6.696;2022-12-11T13:01:07;44.72;;;16.23;;
65691;SDS011;52411;52.716;6.696;2022-12-11T13:04:01;47.67;;;15.63;;
65691;SDS011;52411;52.716;6.696;2022-12-11T13:06:35;48.22;;;15.25;;
65691;SDS011;52411;52.716;6.696;2022-12-11T13:11:47;41.45;;;14.23;;
65691;SDS011;52411;52.716;6.696;2022-12-11T13:16:48;43.65;;;15.45;;
65691;SDS011;52411;52.716;6.696;2022-12-11T13:22:03;47.10;;;15.88;;
65691;SDS011;52411;52.716;6.696;2022-12-11T13:24:56;43.15;;;14.90;;
65691;SDS011;52411;52.716;6.696;2022-12-11T13:30:39;46.15;;;15.55;;
65691;SDS011;52411;52.716;6.696;2022-12-11T13:32:40;46.38;;;15.93;;
65691;SDS011;52411;52.716;6.696;2022-12-11T13:35:11;49.60;;;15.98;;
65691;SDS011;52411;52.716;6.696;2022-12-11T13:37:41;45.30;;;16.30;;
65691;SDS011;52411;52.716;6.696;2022-12-11T13:40:19;41.72;;;16.38;;
65691;SDS011;52411;52.716;6.696;2022-12-11T13:45:44;37.55;;;14.30;;
65691;SDS011;52411;52.716;6.696;2022-12-11T13:48:17;39.28;;;14.63;;
65691;SDS011;52411;52.716;6.696;2022-12-11T13:50:46;34.92;;;13.40;;
65691;SDS011;52411;52.716;6.696;2022-12-11T13:53:14;35.55;;;13.82;;
65691;SDS011;52411;52.716;6.696;2022-12-11T13:55:41;36.55;;;14.63;;
65691;SDS011;52411;52.716;6.696;2022-12-11T13:58:17;33.95;;;13.10;;
65691;SDS011;52411;52.716;6.696;2022-12-11T14:00:50;32.88;;;13.55;;
65691;SDS011;52411;52.716;6.696;2022-12-11T14:03:38;32.95;;;13.35;;
65691;SDS011;52411;52.716;6.696;2022-12-11T14:06:07;33.03;;;12.88;;
65691;SDS011;52411;52.716;6.696;2022-12-11T14:08:35;31.20;;;12.88;;
65691;SDS011;52411;52.716;6.696;2022-12-11T14:11:04;30.88;;;13.52;;
65691;SDS011;52411;52.716;6.696;2022-12-11T14:13:34;30.80;;;13.40;;
65691;SDS011;52411;52.716;6.696;2022-12-11T14:16:03;33.03;;;12.75;;
65691;SDS011;52411;52.716;6.696;2022-12-11T14:18:30;33.47;;;13.55;;
65691;SDS011;52411;52.716;6.696;2022-12-11T14:20:58;31.27;;;13.38;;
65691;SDS011;52411;52.716;6.696;2022-12-11T14:23:26;32.05;;;12.43;;
65691;SDS011;52411;52.716;6.696;2022-12-11T14:26:03;30.55;;;13.18;;
65691;SDS011;52411;52.716;6.696;2022-12-11T14:28:42;34.85;;;13.65;;
65691;SDS011;52411;52.716;6.696;2022-12-11T14:31:08;31.65;;;12.80;;
65691;SDS011;52411;52.716;6.696;2022-12-11T14:33:39;30.98;;;12.18;;
65691;SDS011;52411;52.716;6.696;2022-12-11T14:36:08;30.20;;;12.40;;
65691;SDS011;52411;52.716;6.696;2022-12-11T14:38:39;29.98;;;13.07;;
65691;SDS011;52411;52.716;6.696;2022-12-11T14:41:15;29.80;;;12.98;;
65691;SDS011;52411;52.716;6.696;2022-12-11T14:43:53;36.88;;;12.90;;
65691;SDS011;52411;52.716;6.696;2022-12-11T14:46:43;31.02;;;12.55;;
65691;SDS011;52411;52.716;6.696;2022-12-11T14:49:23;26.88;;;11.80;;
65691;SDS011;52411;52.716;6.696;2022-12-11T14:51:50;28.27;;;12.40;;
65691;SDS011;52411;52.716;6.696;2022-12-11T14:54:30;25.80;;;11.23;;
65691;SDS011;52411;52.716;6.696;2022-12-11T14:57:03;30.20;;;12.43;;
65691;SDS011;52411;52.716;6.696;2022-12-11T14:59:30;31.05;;;12.32;;
65691;SDS011;52411;52.716;6.696;2022-12-11T15:02:16;25.52;;;11.15;;
65691;SDS011;52411;52.716;6.696;2022-12-11T15:04:57;28.65;;;11.88;;
65691;SDS011;52411;52.716;6.696;2022-12-11T15:07:27;27.65;;;11.32;;
65691;SDS011;52411;52.716;6.696;2022-12-11T15:09:53;23.33;;;10.45;;
65691;SDS011;52411;52.716;6.696;2022-12-11T15:12:19;25.42;;;11.20;;
65691;SDS011;52411;52.716;6.696;2022-12-11T15:17:14;24.13;;;11.02;;
65691;SDS011;52411;52.716;6.696;2022-12-11T15:19:40;29.02;;;12.05;;
65691;SDS011;52411;52.716;6.696;2022-12-11T15:22:11;23.13;;;10.82;;
65691;SDS011;52411;52.716;6.696;2022-12-11T15:24:39;26.45;;;10.40;;
65691;SDS011;52411;52.716;6.696;2022-12-11T15:27:24;27.13;;;10.55;;
65691;SDS011;52411;52.716;6.696;2022-12-11T15:33:02;26.02;;;10.35;;
65691;SDS011;52411;52.716;6.696;2022-12-11T15:35:28;28.88;;;11.82;;
65691;SDS011;52411;52.716;6.696;2022-12-11T15:37:55;25.05;;;11.07;;
65691;SDS011;52411;52.716;6.696;2022-12-11T15:40:22;28.05;;;12.02;;
65691;SDS011;52411;52.716;6.696;2022-12-11T15:42:48;26.33;;;10.98;;
65691;SDS011;52411;52.716;6.696;2022-12-11T15:45:15;25.63;;;11.80;;
65691;SDS011;52411;52.716;6.696;2022-12-11T15:47:41;26.27;;;11.85;;
65691;SDS011;52411;52.716;6.696;2022-12-11T15:50:18;28.15;;;13.15;;
65691;SDS011;52411;52.716;6.696;2022-12-11T15:52:45;29.60;;;12.38;;
65691;SDS011;52411;52.716;6.696;2022-12-11T15:55:12;28.67;;;12.30;;
65691;SDS011;52411;52.716;6.696;2022-12-11T15:57:39;30.10;;;12.32;;